createdAt,value
2023-02-09T00:00:14.065Z,49.90
2023-02-09T00:02:44.515Z,48.17
2023-02-09T00:05:13.825Z,50.42
2023-02-09T00:07:42.862Z,51.30
2023-02-09T00:10:12.182Z,46.50
2023-02-09T00:13:00.334Z,47.25
2023-02-09T00:15:29.369Z,50.67
2023-02-09T00:17:58.650Z,47.28
2023-02-09T00:20:27.687Z,53.72
2023-02-09T00:22:56.750Z,52.03
2023-02-09T00:25:25.809Z,52.72
2023-02-09T00:27:56.252Z,53.33
2023-02-09T00:30:26.131Z,56.03
2023-02-09T00:32:55.212Z,53.78
2023-02-09T00:35:24.260Z,52.10
2023-02-09T00:37:53.320Z,51.63
2023-02-09T00:40:22.708Z,52.78
2023-02-09T00:42:51.935Z,52.67
2023-02-09T00:45:22.352Z,52.17
2023-02-09T00:47:51.426Z,52.88
2023-02-09T00:50:20.699Z,55.63
2023-02-09T00:52:50.470Z,54.55
2023-02-09T00:55:20.172Z,57.85
2023-02-09T00:57:49.211Z,54.17
2023-02-09T01:00:19.715Z,50.85
2023-02-09T01:02:50.142Z,55.55
2023-02-09T01:05:19.906Z,57.80
2023-02-09T01:07:48.991Z,52.53
2023-02-09T01:10:18.056Z,52.63
2023-02-09T01:12:47.199Z,52.08
2023-02-09T01:15:16.401Z,49.05
2023-02-09T01:17:46.383Z,45.20
2023-02-09T01:20:17.714Z,50.80
2023-02-09T01:22:46.832Z,55.47
2023-02-09T01:25:15.944Z,46.20
2023-02-09T01:27:44.991Z,50.05
2023-02-09T01:30:15.210Z,48.75
2023-02-09T01:32:44.387Z,51.97
2023-02-09T01:35:13.676Z,48.45
2023-02-09T01:37:44.116Z,48.58
2023-02-09T01:40:13.924Z,49.65
2023-02-09T01:42:43.987Z,46.03
2023-02-09T01:45:29.682Z,48.30
2023-02-09T01:48:03.496Z,47.88
2023-02-09T01:50:37.397Z,48.83
2023-02-09T01:53:09.340Z,46.80
2023-02-09T01:55:45.504Z,51.88
2023-02-09T01:58:18.582Z,33.65
2023-02-09T02:00:48.729Z,51.33
2023-02-09T02:03:22.690Z,50.10
2023-02-09T02:05:56.684Z,49.97
2023-02-09T02:08:32.575Z,51.50
2023-02-09T02:11:01.962Z,51.97
2023-02-09T02:13:31.006Z,54.10
2023-02-09T02:16:08.019Z,52.83
2023-02-09T02:18:58.755Z,49.25
2023-02-09T02:22:18.031Z,49.92
2023-02-09T02:25:23.489Z,52.30
2023-02-09T02:28:11.267Z,56.75
2023-02-09T02:30:59.635Z,55.60
2023-02-09T02:33:42.723Z,59.22
2023-02-09T02:36:19.412Z,51.42
2023-02-09T02:41:53.789Z,52.70
2023-02-09T02:44:24.637Z,47.40
2023-02-09T02:46:58.954Z,46.55
2023-02-09T02:49:40.210Z,45.83
2023-02-09T02:52:12.263Z,49.33
2023-02-09T02:54:46.588Z,47.92
2023-02-09T02:57:22.492Z,50.80
2023-02-09T02:59:56.756Z,40.67
2023-02-09T03:02:33.632Z,55.13
2023-02-09T03:05:06.782Z,52.53
2023-02-09T03:07:35.943Z,46.30
2023-02-09T03:10:27.835Z,56.15
2023-02-09T03:13:13.137Z,48.67
2023-02-09T03:15:55.461Z,50.58
2023-02-09T03:18:31.958Z,52.10
2023-02-09T03:21:12.476Z,53.42
2023-02-09T03:23:48.470Z,49.10
2023-02-09T03:26:23.739Z,39.67
2023-02-09T03:28:57.256Z,48.35
2023-02-09T03:31:28.201Z,51.20
2023-02-09T03:33:58.441Z,51.85
2023-02-09T03:36:34.311Z,52.05
2023-02-09T03:39:03.373Z,51.45
2023-02-09T03:41:32.574Z,56.83
2023-02-09T03:44:19.320Z,49.97
2023-02-09T03:46:48.432Z,53.88
2023-02-09T03:49:17.484Z,53.20
2023-02-09T03:51:48.226Z,54.30
2023-02-09T03:54:17.274Z,58.15
2023-02-09T03:56:46.562Z,54.67
2023-02-09T03:59:15.675Z,51.72
2023-02-09T04:01:44.851Z,56.22
2023-02-09T04:04:14.056Z,56.15
2023-02-09T04:06:43.092Z,57.65
2023-02-09T04:09:14.061Z,55.30
2023-02-09T04:11:43.443Z,55.50
2023-02-09T04:14:12.641Z,51.25
2023-02-09T04:16:41.812Z,53.05
2023-02-09T04:19:12.404Z,52.35
2023-02-09T04:21:41.497Z,48.63
2023-02-09T04:24:10.996Z,53.92
2023-02-09T04:26:41.429Z,57.63
2023-02-09T04:29:10.529Z,50.88
2023-02-09T04:31:39.698Z,53.38
2023-02-09T04:34:08.885Z,50.53
2023-02-09T04:36:37.961Z,50.30
2023-02-09T04:39:07.059Z,57.40
2023-02-09T04:41:36.235Z,61.20
2023-02-09T04:44:06.910Z,57.67
2023-02-09T04:46:36.116Z,60.97
2023-02-09T04:49:05.277Z,52.33
2023-02-09T04:51:34.476Z,56.13
2023-02-09T04:54:03.589Z,59.15
2023-02-09T04:56:32.719Z,59.67
2023-02-09T04:59:19.302Z,56.97
2023-02-09T05:01:49.783Z,51.03
2023-02-09T05:04:18.806Z,53.85
2023-02-09T05:06:47.869Z,59.75
2023-02-09T05:09:16.955Z,59.88
2023-02-09T05:11:46.030Z,58.13
2023-02-09T05:14:15.380Z,54.90
2023-02-09T05:16:44.490Z,57.92
2023-02-09T05:19:16.152Z,52.67
2023-02-09T05:21:45.207Z,54.88
2023-02-09T05:24:14.423Z,51.28
2023-02-09T05:26:43.497Z,58.28
2023-02-09T05:29:12.570Z,62.63
2023-02-09T05:31:42.803Z,52.10
2023-02-09T05:34:12.026Z,55.45
2023-02-09T05:36:42.482Z,54.53
2023-02-09T05:39:11.507Z,59.75
2023-02-09T05:41:58.207Z,50.42
2023-02-09T05:44:27.266Z,55.28
2023-02-09T05:46:56.327Z,52.25
2023-02-09T05:49:25.472Z,59.45
2023-02-09T05:51:55.886Z,57.85
2023-02-09T05:54:25.176Z,54.08
2023-02-09T05:56:54.270Z,59.58
2023-02-09T05:59:23.362Z,65.20
2023-02-09T06:01:52.744Z,62.60
2023-02-09T06:04:22.232Z,59.80
2023-02-09T06:06:51.294Z,57.88
2023-02-09T06:09:22.211Z,57.58
2023-02-09T06:11:51.544Z,48.95
2023-02-09T06:14:20.953Z,53.65
2023-02-09T06:16:50.019Z,55.97
2023-02-09T06:19:22.518Z,54.38
2023-02-09T06:21:51.620Z,58.85
2023-02-09T06:24:22.072Z,56.63
2023-02-09T06:26:51.103Z,52.92
2023-02-09T06:29:20.252Z,51.35
2023-02-09T06:31:49.432Z,56.47
2023-02-09T06:34:18.629Z,55.15
2023-02-09T06:36:47.752Z,56.85
2023-02-09T06:39:16.854Z,60.63
2023-02-09T06:41:47.279Z,61.25
2023-02-09T06:44:16.403Z,59.50
2023-02-09T06:46:45.388Z,58.85
2023-02-09T06:49:14.733Z,58.50
2023-02-09T06:51:43.920Z,52.92
2023-02-09T06:54:13.032Z,69.85
2023-02-09T06:56:42.083Z,58.90
2023-02-09T06:59:12.630Z,55.85
2023-02-09T07:01:41.883Z,55.10
2023-02-09T07:04:10.946Z,57.20
2023-02-09T07:06:39.961Z,59.00
2023-02-09T07:09:09.192Z,55.60
2023-02-09T07:11:38.329Z,57.90
2023-02-09T07:14:07.402Z,55.25
2023-02-09T07:16:37.881Z,54.50
2023-02-09T07:19:06.953Z,53.65
2023-02-09T07:21:35.998Z,56.40
2023-02-09T07:24:05.731Z,58.90
2023-02-09T07:26:34.857Z,58.78
2023-02-09T07:29:03.917Z,57.40
2023-02-09T07:31:33.138Z,53.30
2023-02-09T07:34:03.618Z,58.33
2023-02-09T07:36:32.733Z,52.85
2023-02-09T07:39:02.337Z,51.90
2023-02-09T07:41:31.456Z,55.83
2023-02-09T07:44:00.508Z,57.13
2023-02-09T07:46:29.641Z,52.22
2023-02-09T07:49:01.232Z,54.72
2023-02-09T07:51:34.075Z,57.35
2023-02-09T07:54:04.634Z,56.72
2023-02-09T07:56:39.403Z,40.53
2023-02-09T07:59:09.314Z,52.47
2023-02-09T08:01:38.473Z,52.85
2023-02-09T08:04:07.619Z,54.83
2023-02-09T08:06:43.189Z,57.15
2023-02-09T08:09:14.924Z,62.50
2023-02-09T08:11:49.907Z,50.33
2023-02-09T08:14:25.091Z,58.53
2023-02-09T08:17:18.967Z,56.67
2023-02-09T08:19:51.372Z,52.85
2023-02-09T08:22:23.534Z,53.95
2023-02-09T08:24:53.147Z,52.30
2023-02-09T08:27:23.331Z,54.97
2023-02-09T08:29:52.677Z,56.15
2023-02-09T08:32:21.806Z,52.72
2023-02-09T08:34:50.923Z,47.63
2023-02-09T08:37:21.389Z,55.03
2023-02-09T08:39:50.513Z,51.47
2023-02-09T08:42:19.725Z,56.65
2023-02-09T08:44:48.803Z,57.65
2023-02-09T08:47:17.982Z,49.92
2023-02-09T08:49:47.041Z,56.28
2023-02-09T08:52:16.653Z,50.22
2023-02-09T08:54:47.123Z,48.75
2023-02-09T08:57:16.225Z,43.95
2023-02-09T08:59:45.282Z,47.30
2023-02-09T09:02:14.375Z,45.38
2023-02-09T09:04:43.465Z,46.25
2023-02-09T09:07:12.524Z,45.72
2023-02-09T09:09:41.675Z,42.33
2023-02-09T09:12:12.196Z,43.72
2023-02-09T09:14:41.774Z,39.10
2023-02-09T09:17:10.895Z,46.63
2023-02-09T09:19:40.175Z,42.13
2023-02-09T09:22:09.276Z,42.38
2023-02-09T09:24:40.791Z,44.95
2023-02-09T09:27:11.820Z,42.90
2023-02-09T09:29:40.968Z,47.85
2023-02-09T09:32:13.898Z,39.45
2023-02-09T09:34:43.514Z,41.67
2023-02-09T09:37:12.583Z,34.13
2023-02-09T09:39:41.610Z,37.90
2023-02-09T09:42:25.536Z,38.90
2023-02-09T09:44:55.695Z,31.52
2023-02-09T09:47:35.815Z,31.98
2023-02-09T09:50:07.673Z,31.80
2023-02-09T09:52:41.445Z,30.90
2023-02-09T09:55:19.227Z,25.13
2023-02-09T09:57:50.833Z,23.38
2023-02-09T10:00:24.453Z,23.60
2023-02-09T10:02:53.803Z,22.10
2023-02-09T10:05:26.711Z,25.20
2023-02-09T10:08:02.334Z,23.15
2023-02-09T10:10:44.990Z,25.15
2023-02-09T10:13:24.815Z,25.88
2023-02-09T10:15:55.875Z,25.10
2023-02-09T10:18:26.627Z,23.83
2023-02-09T10:21:02.451Z,25.20
2023-02-09T10:23:41.677Z,22.80
2023-02-09T10:26:24.993Z,24.45
2023-02-09T10:28:58.178Z,21.70
2023-02-09T10:31:33.293Z,25.00
2023-02-09T10:34:11.775Z,23.33
2023-02-09T10:36:49.730Z,20.25
2023-02-09T10:39:22.449Z,22.40
2023-02-09T10:41:54.056Z,20.00
2023-02-09T10:44:28.036Z,22.45
2023-02-09T10:47:12.052Z,22.77
2023-02-09T10:49:41.126Z,20.60
2023-02-09T10:52:19.390Z,23.10
2023-02-09T10:54:52.015Z,22.50
2023-02-09T10:57:25.283Z,19.83
2023-02-09T10:59:59.624Z,21.38
2023-02-09T11:02:38.856Z,20.13
2023-02-09T11:05:29.752Z,22.48
2023-02-09T11:08:07.723Z,20.90
2023-02-09T11:10:42.570Z,21.20
2023-02-09T11:13:25.030Z,25.58
2023-02-09T11:16:44.449Z,22.77
2023-02-09T11:19:31.573Z,20.20
2023-02-09T11:22:12.774Z,23.10
2023-02-09T11:24:54.160Z,21.48
2023-02-09T11:27:42.651Z,22.05
2023-02-09T11:30:38.893Z,21.55
2023-02-09T11:33:17.534Z,22.80
2023-02-09T11:35:59.423Z,21.77
2023-02-09T11:38:40.310Z,21.80
2023-02-09T11:41:34.365Z,21.58
2023-02-09T11:44:07.683Z,23.92
2023-02-09T11:46:38.614Z,23.33
2023-02-09T11:49:19.256Z,20.67
2023-02-09T11:51:50.851Z,21.88
2023-02-09T11:54:24.565Z,24.55
2023-02-09T11:57:02.704Z,24.17
2023-02-09T11:59:39.933Z,21.95
2023-02-09T12:05:00.404Z,23.75
2023-02-09T12:07:37.408Z,24.10
2023-02-09T12:10:20.659Z,21.27
2023-02-09T12:12:55.885Z,20.88
2023-02-09T12:15:29.014Z,20.17
2023-02-09T12:18:05.088Z,20.40
2023-02-09T12:20:53.999Z,22.20
2023-02-09T12:23:31.659Z,19.75
2023-02-09T12:26:01.839Z,19.70
2023-02-09T12:28:44.964Z,25.23
2023-02-09T12:31:25.736Z,19.75
2023-02-09T12:34:24.959Z,17.92
2023-02-09T12:37:30.350Z,19.05
2023-02-09T12:40:24.055Z,16.52
2023-02-09T12:43:29.435Z,19.15
2023-02-09T12:46:16.357Z,18.00
2023-02-09T12:49:10.511Z,18.73
2023-02-09T12:52:09.639Z,16.58
2023-02-09T12:55:01.036Z,18.38
2023-02-09T12:57:54.223Z,16.67
2023-02-09T13:00:56.403Z,18.98
2023-02-09T13:03:27.698Z,19.10
2023-02-09T13:06:03.132Z,19.05
2023-02-09T13:08:39.966Z,16.95
2023-02-09T13:11:26.801Z,18.75
2023-02-09T13:13:59.086Z,20.40
2023-02-09T13:17:11.850Z,18.13
2023-02-09T13:20:06.081Z,18.02
2023-02-09T13:22:51.888Z,22.73
2023-02-09T13:25:32.505Z,17.15
2023-02-09T13:28:15.852Z,18.10
2023-02-09T13:30:45.803Z,18.00
2023-02-09T13:33:33.615Z,18.08
2023-02-09T13:38:54.948Z,20.33
2023-02-09T13:41:33.092Z,18.83
2023-02-09T13:44:04.110Z,19.02
2023-02-09T13:46:35.422Z,17.48
2023-02-09T13:49:13.261Z,20.00
2023-02-09T13:51:42.621Z,20.40
2023-02-09T13:54:20.361Z,19.73
2023-02-09T13:56:49.617Z,15.52
2023-02-09T13:59:20.169Z,20.25
2023-02-09T14:01:50.525Z,19.20
2023-02-09T14:04:25.499Z,15.93
2023-02-09T14:07:03.194Z,18.90
2023-02-09T14:09:43.319Z,16.48
2023-02-09T14:12:18.788Z,18.48
2023-02-09T14:15:15.820Z,15.70
2023-02-09T14:17:53.496Z,20.70
2023-02-09T14:20:25.910Z,14.93
2023-02-09T14:23:00.694Z,16.10
2023-02-09T14:25:31.911Z,17.45
2023-02-09T14:28:01.384Z,14.32
2023-02-09T14:30:36.375Z,17.23
2023-02-09T14:33:06.249Z,13.00
2023-02-09T14:35:40.541Z,14.98
2023-02-09T14:38:38.635Z,16.65
2023-02-09T14:41:30.501Z,14.27
2023-02-09T14:44:02.087Z,17.02
2023-02-09T14:46:49.656Z,16.83
2023-02-09T14:49:19.658Z,15.50
2023-02-09T14:51:51.336Z,15.13
2023-02-09T14:54:26.590Z,16.38
2023-02-09T14:56:58.741Z,13.63
2023-02-09T14:59:28.301Z,15.13
2023-02-09T15:01:59.127Z,14.38
2023-02-09T15:04:33.194Z,13.65
2023-02-09T15:07:05.102Z,15.35
2023-02-09T15:09:38.216Z,13.18
2023-02-09T15:12:08.945Z,11.82
2023-02-09T15:14:44.707Z,15.50
2023-02-09T15:17:19.001Z,12.27
2023-02-09T15:19:49.046Z,16.02
2023-02-09T15:22:19.095Z,14.63
2023-02-09T15:24:52.287Z,15.30
2023-02-09T15:27:30.167Z,17.00
2023-02-09T15:30:02.305Z,16.48
2023-02-09T15:32:34.691Z,18.90
2023-02-09T15:35:05.242Z,15.50
2023-02-09T15:37:38.299Z,17.80
2023-02-09T15:40:43.938Z,18.13
2023-02-09T15:43:34.285Z,18.60
2023-02-09T15:46:21.741Z,22.63
2023-02-09T15:48:52.360Z,22.95
2023-02-09T15:51:22.798Z,17.48
2023-02-09T15:53:54.259Z,25.92
2023-02-09T15:56:23.763Z,18.85
2023-02-09T15:58:53.432Z,19.33
2023-02-09T16:01:22.501Z,22.58
2023-02-09T16:03:55.238Z,25.13
2023-02-09T16:06:26.058Z,30.20
2023-02-09T16:08:57.911Z,26.17
2023-02-09T16:11:33.009Z,19.10
2023-02-09T16:14:02.616Z,17.67
2023-02-09T16:16:32.217Z,30.48
2023-02-09T16:19:02.800Z,25.02
2023-02-09T16:21:36.172Z,25.05
2023-02-09T16:24:07.576Z,24.23
2023-02-09T16:26:37.048Z,21.45
2023-02-09T16:29:12.281Z,25.02
2023-02-09T16:31:42.344Z,24.48
2023-02-09T16:34:15.761Z,20.25
2023-02-09T16:36:46.395Z,20.60
2023-02-09T16:39:20.634Z,27.08
2023-02-09T16:41:53.873Z,27.73
2023-02-09T16:44:26.035Z,25.23
2023-02-09T16:46:59.791Z,22.60
2023-02-09T16:49:38.976Z,36.70
2023-02-09T16:52:16.943Z,35.75
2023-02-09T16:54:49.302Z,34.47
2023-02-09T16:57:23.238Z,43.78
2023-02-09T16:59:53.555Z,51.70
2023-02-09T17:02:39.858Z,42.92
2023-02-09T17:05:20.380Z,53.28
2023-02-09T17:07:55.677Z,43.95
2023-02-09T17:10:28.956Z,49.00
2023-02-09T17:12:58.674Z,45.95
2023-02-09T17:15:31.652Z,41.47
2023-02-09T17:18:06.600Z,46.20
2023-02-09T17:20:42.672Z,41.65
2023-02-09T17:23:17.627Z,31.27
2023-02-09T17:25:48.157Z,29.17
2023-02-09T17:28:18.199Z,26.63
2023-02-09T17:30:49.634Z,28.50
2023-02-09T17:33:24.759Z,36.00
2023-02-09T17:36:24.709Z,37.38
2023-02-09T17:38:48.050Z,34.05
2023-02-09T17:41:23.162Z,34.40
2023-02-09T17:43:53.798Z,32.55
2023-02-09T17:46:23.832Z,25.55
2023-02-09T17:48:53.255Z,26.75
2023-02-09T17:51:30.800Z,26.77
2023-02-09T17:53:59.964Z,27.25
2023-02-09T17:56:29.101Z,24.95
2023-02-09T17:59:03.098Z,33.83
2023-02-09T18:01:33.456Z,27.92
2023-02-09T18:04:03.573Z,31.10
2023-02-09T18:06:37.548Z,38.15
2023-02-09T18:09:09.651Z,38.75
2023-02-09T18:12:00.044Z,41.00
2023-02-09T18:14:31.440Z,42.22
2023-02-09T18:17:00.943Z,57.20
2023-02-09T18:19:30.140Z,51.08
2023-02-09T18:22:02.988Z,23.58
2023-02-09T18:24:36.429Z,21.55
2023-02-09T18:27:08.132Z,23.70
2023-02-09T18:29:37.344Z,22.35
2023-02-09T18:32:07.696Z,25.73
2023-02-09T18:34:37.402Z,27.27
2023-02-09T18:37:08.304Z,28.83
2023-02-09T18:39:40.776Z,28.73
2023-02-09T18:42:14.704Z,30.77
2023-02-09T18:44:44.267Z,32.03
2023-02-09T18:47:14.120Z,38.70
2023-02-09T18:49:43.331Z,44.75
2023-02-09T18:52:18.865Z,40.17
2023-02-09T18:54:48.101Z,40.58
2023-02-09T18:57:18.354Z,54.67
2023-02-09T18:59:50.058Z,38.10
2023-02-09T19:02:19.687Z,35.72
2023-02-09T19:04:48.984Z,44.53
2023-02-09T19:07:19.456Z,30.67
2023-02-09T19:09:48.525Z,38.83
2023-02-09T19:12:17.602Z,30.17
2023-02-09T19:14:47.924Z,28.40
2023-02-09T19:17:20.333Z,29.10
2023-02-09T19:19:50.232Z,32.10
2023-02-09T19:22:22.853Z,29.55
2023-02-09T19:24:56.113Z,28.52
2023-02-09T19:27:27.589Z,29.63
2023-02-09T19:29:58.823Z,30.63
2023-02-09T19:32:28.988Z,33.45
2023-02-09T19:34:58.486Z,38.15
2023-02-09T19:37:30.311Z,36.15
2023-02-09T19:40:07.332Z,36.30
2023-02-09T19:42:36.976Z,55.50
2023-02-09T19:45:07.249Z,46.95
2023-02-09T19:47:38.304Z,44.40
2023-02-09T19:50:08.025Z,46.30
2023-02-09T19:52:40.837Z,48.33
2023-02-09T19:55:12.103Z,49.97
2023-02-09T19:57:42.530Z,49.90
2023-02-09T20:00:15.805Z,48.88
2023-02-09T20:02:44.893Z,46.58
2023-02-09T20:05:14.183Z,47.13
2023-02-09T20:07:44.844Z,44.22
2023-02-09T20:10:14.193Z,45.65
2023-02-09T20:15:18.805Z,54.47
2023-02-09T20:20:22.114Z,54.70
2023-02-09T20:22:52.846Z,51.38
2023-02-09T20:25:22.152Z,45.40
2023-02-09T20:27:52.206Z,49.17
2023-02-09T20:30:21.534Z,49.80
2023-02-09T20:32:50.759Z,47.00
2023-02-09T20:35:20.080Z,46.60
2023-02-09T20:37:49.546Z,46.20
2023-02-09T20:40:20.604Z,55.80
2023-02-09T20:43:08.494Z,50.33
2023-02-09T20:45:55.112Z,42.03
2023-02-09T20:48:24.307Z,41.27
2023-02-09T20:50:55.088Z,40.20
2023-02-09T20:53:24.492Z,42.95
2023-02-09T20:55:54.983Z,43.13
2023-02-09T20:58:24.086Z,43.75
2023-02-09T21:00:53.839Z,47.63
2023-02-09T21:03:23.950Z,45.67
2023-02-09T21:05:53.233Z,46.67
2023-02-09T21:08:22.895Z,39.15
2023-02-09T21:10:58.361Z,35.28
2023-02-09T21:13:27.508Z,42.30
2023-02-09T21:15:56.971Z,46.67
2023-02-09T21:18:26.111Z,46.42
2023-02-09T21:20:55.647Z,42.20
2023-02-09T21:23:24.762Z,50.35
2023-02-09T21:26:03.660Z,42.78
2023-02-09T21:28:33.295Z,43.45
2023-02-09T21:31:02.550Z,42.80
2023-02-09T21:33:31.643Z,50.83
2023-02-09T21:36:00.716Z,53.40
2023-02-09T21:38:29.854Z,50.33
2023-02-09T21:40:58.897Z,55.08
2023-02-09T21:43:29.364Z,55.60
2023-02-09T21:45:58.450Z,51.05
2023-02-09T21:48:27.587Z,51.90
2023-02-09T21:50:56.928Z,48.53
2023-02-09T21:53:26.283Z,48.88
2023-02-09T21:55:55.431Z,47.88
2023-02-09T21:58:24.520Z,50.40
2023-02-09T22:00:59.908Z,45.28
2023-02-09T22:03:28.982Z,44.70
2023-02-09T22:05:58.165Z,42.85
2023-02-09T22:08:27.866Z,39.13
2023-02-09T22:11:00.301Z,39.45
2023-02-09T22:13:29.611Z,39.80
2023-02-09T22:16:00.558Z,40.88
2023-02-09T22:18:29.681Z,49.00
2023-02-09T22:21:00.514Z,45.90
2023-02-09T22:23:29.658Z,49.67
2023-02-09T22:26:02.594Z,52.78
2023-02-09T22:28:34.496Z,46.92
2023-02-09T22:31:13.328Z,50.40
2023-02-09T22:33:43.155Z,49.55
2023-02-09T22:36:16.206Z,49.60
2023-02-09T22:38:46.076Z,69.90
2023-02-09T22:41:22.376Z,61.80
2023-02-09T22:43:52.654Z,44.60
2023-02-09T22:46:25.620Z,53.45
2023-02-09T22:48:57.008Z,56.28
2023-02-09T22:51:28.607Z,51.55
2023-02-09T22:53:58.346Z,50.97
2023-02-09T22:56:28.435Z,48.95
2023-02-09T22:58:59.163Z,51.28
2023-02-09T23:01:30.852Z,47.67
2023-02-09T23:04:00.454Z,44.72
2023-02-09T23:06:30.809Z,40.95
2023-02-09T23:09:04.287Z,45.35
2023-02-09T23:11:33.523Z,46.10
2023-02-09T23:14:11.169Z,47.90
2023-02-09T23:16:43.554Z,42.05
2023-02-09T23:19:15.089Z,48.05
2023-02-09T23:21:46.536Z,41.50
2023-02-09T23:24:17.529Z,58.88
2023-02-09T23:26:46.671Z,50.88
2023-02-09T23:29:17.586Z,43.10
2023-02-09T23:31:48.919Z,51.85
2023-02-09T23:34:21.118Z,98.28
2023-02-09T23:36:50.357Z,59.72
2023-02-09T23:39:22.405Z,57.15
2023-02-09T23:41:51.543Z,55.78
2023-02-09T23:44:20.753Z,66.72
2023-02-09T23:46:51.283Z,71.03
2023-02-09T23:49:20.394Z,55.80
2023-02-09T23:51:49.541Z,47.90
2023-02-09T23:54:18.611Z,46.05
2023-02-09T23:56:49.755Z,44.58
2023-02-09T23:59:18.837Z,40.92
